Time;durP1;ratioP1;P1;durP2;ratioP2;P2;SDS_P1;SDS_P2;PMS_P1;PMS_P2;Temp;Humidity;BMP_temperature;BMP_pressure;BME280_temperature;BME280_humidity;BME280_pressure;Samples;Min_cycle;Max_cycle;Signal;HPM_P1;HPM_P2
2021/12/22 00:00:16;;;;;;;11.65;4.32;;;26.60;99.70;;;;;;4966557;28;20109;-70
2021/12/22 00:02:48;;;;;;;13.48;5.22;;;26.60;99.70;;;;;;4968499;28;20027;-71
2021/12/22 00:05:23;;;;;;;14.48;4.25;;;26.60;99.90;;;;;;4967298;28;20431;-67
2021/12/22 00:07:50;;;;;;;14.82;4.93;;;26.80;99.60;;;;;;4967810;28;20041;-72
2021/12/22 00:10:19;;;;;;;15.73;4.88;;;26.80;99.10;;;;;;4966879;28;20027;-72
2021/12/22 00:12:48;;;;;;;13.95;5.28;;;26.70;99.70;;;;;;4967916;28;20138;-68
2021/12/22 00:15:16;;;;;;;15.25;5.28;;;26.60;99.60;;;;;;4966096;28;20034;-72
2021/12/22 00:17:44;;;;;;;10.13;4.72;;;26.70;99.50;;;;;;4969491;28;20038;-73
2021/12/22 00:20:13;;;;;;;12.35;4.78;;;26.70;99.50;;;;;;4971483;28;20023;-71
2021/12/22 00:22:40;;;;;;;18.45;6.28;;;26.70;99.80;;;;;;4972626;28;20035;-72
2021/12/22 00:25:08;;;;;;;13.70;4.70;;;26.80;99.30;;;;;;4970860;28;20652;-73
2021/12/22 00:27:35;;;;;;;14.43;4.90;;;26.80;99.20;;;;;;4953499;28;20027;-72
2021/12/22 00:30:04;;;;;;;14.95;5.72;;;26.80;99.40;;;;;;4952959;28;20037;-74
2021/12/22 00:32:33;;;;;;;13.20;5.47;;;26.90;99.20;;;;;;4953389;28;20035;-75
2021/12/22 00:35:00;;;;;;;15.50;4.78;;;27.00;99.00;;;;;;4954848;28;20047;-77
2021/12/22 00:37:29;;;;;;;11.60;5.50;;;27.10;98.70;;;;;;4971650;28;20468;-80
2021/12/22 00:39:57;;;;;;;11.45;5.15;;;27.20;98.60;;;;;;4972168;28;20373;-74
2021/12/22 00:42:25;;;;;;;11.73;5.55;;;27.20;98.60;;;;;;4972588;28;20412;-74
2021/12/22 00:44:56;;;;;;;11.30;5.03;;;27.40;98.30;;;;;;4972102;28;20034;-74
2021/12/22 00:47:27;;;;;;;9.38;4.25;;;27.50;98.10;;;;;;4972753;28;20536;-74
2021/12/22 00:49:55;;;;;;;11.20;5.03;;;27.60;97.90;;;;;;4973497;28;20035;-74
2021/12/22 00:52:23;;;;;;;14.40;5.00;;;27.60;97.80;;;;;;4974338;28;20039;-75
2021/12/22 00:54:50;;;;;;;13.48;5.20;;;27.40;98.20;;;;;;4973416;28;20019;-76
2021/12/22 00:57:18;;;;;;;13.55;5.43;;;27.40;98.00;;;;;;4972874;28;20034;-75
2021/12/22 00:59:47;;;;;;;14.20;6.00;;;27.40;98.20;;;;;;4972588;28;20019;-76
2021/12/22 01:02:20;;;;;;;10.18;4.97;;;27.40;97.90;;;;;;4969802;28;20101;-75
2021/12/22 01:04:47;;;;;;;13.35;5.22;;;27.40;98.30;;;;;;4963251;28;20445;-75
2021/12/22 01:07:15;;;;;;;12.65;5.70;;;27.60;97.70;;;;;;4966109;28;20368;-76
2021/12/22 01:09:43;;;;;;;11.38;5.53;;;27.50;98.00;;;;;;4962021;28;20506;-76
2021/12/22 01:12:11;;;;;;;13.13;6.38;;;27.60;97.90;;;;;;4963586;28;20039;-75
2021/12/22 01:14:40;;;;;;;12.65;5.28;;;27.80;97.60;;;;;;4960701;28;20070;-75
2021/12/22 01:17:11;;;;;;;11.13;5.47;;;28.00;97.60;;;;;;4961899;28;20555;-75
2021/12/22 01:25:13;;;;;;;11.73;5.65;;;28.90;95.70;;;;;;4963015;28;20045;-74
2021/12/22 01:27:42;;;;;;;14.85;7.40;;;28.70;95.60;;;;;;4960243;28;20034;-75
2021/12/22 01:30:30;;;;;;;16.92;6.55;;;28.50;95.60;;;;;;4959520;28;20093;-78
2021/12/22 01:33:01;;;;;;;10.10;6.07;;;28.40;95.90;;;;;;4960437;28;20445;-76
2021/12/22 01:35:32;;;;;;;12.07;5.87;;;28.60;96.30;;;;;;4961564;28;20472;-76
2021/12/22 01:38:00;;;;;;;11.52;5.97;;;28.70;95.80;;;;;;4960100;28;20015;-78
2021/12/22 01:40:28;;;;;;;11.68;5.65;;;28.70;95.60;;;;;;4962083;28;20098;-76
2021/12/22 01:42:57;;;;;;;12.27;5.78;;;28.70;95.80;;;;;;4961347;28;20023;-77
2021/12/22 01:51:50;;;;;;;10.82;5.57;;;28.90;95.00;;;;;;4963632;28;20054;-73
2021/12/22 01:54:23;;;;;;;12.10;5.97;;;28.90;94.90;;;;;;4963186;28;20324;-73
2021/12/22 01:56:52;;;;;;;14.10;5.88;;;28.80;94.60;;;;;;4961202;28;20097;-76
2021/12/22 01:59:21;;;;;;;12.13;6.15;;;28.80;94.80;;;;;;4960310;28;20026;-75
2021/12/22 02:01:49;;;;;;;10.55;6.10;;;29.00;94.50;;;;;;4962553;28;20054;-72
2021/12/22 02:04:16;;;;;;;12.70;6.18;;;29.10;94.20;;;;;;4961317;28;20023;-76
2021/12/22 02:06:46;;;;;;;17.60;6.47;;;29.10;94.00;;;;;;4960440;28;20472;-76
2021/12/22 02:09:23;;;;;;;13.05;5.22;;;29.40;93.80;;;;;;4962185;28;20427;-78
2021/12/22 02:11:51;;;;;;;11.40;5.78;;;29.60;93.10;;;;;;4968925;28;20045;-75
2021/12/22 02:14:18;;;;;;;10.48;5.95;;;29.60;92.60;;;;;;4964115;28;20019;-75
2021/12/22 02:16:45;;;;;;;12.30;5.10;;;29.80;92.80;;;;;;4965068;28;20089;-74
2021/12/22 02:19:14;;;;;;;9.50;5.15;;;30.00;92.40;;;;;;4963528;28;20027;-73
2021/12/22 02:21:47;;;;;;;12.57;5.53;;;30.10;92.30;;;;;;4966271;28;20023;-73
2021/12/22 02:24:15;;;;;;;9.48;5.53;;;30.20;91.40;;;;;;4967178;28;20036;-74
2021/12/22 02:27:02;;;;;;;13.45;5.78;;;30.20;91.20;;;;;;4961352;28;20496;-74
2021/12/22 02:29:37;;;;;;;9.25;5.00;;;30.40;91.10;;;;;;4964973;28;20483;-73
2021/12/22 02:32:22;;;;;;;10.98;6.35;;;30.30;91.10;;;;;;4963113;28;20046;-73
2021/12/22 02:34:52;;;;;;;10.55;5.85;;;30.30;91.10;;;;;;4962627;28;20472;-73
2021/12/22 02:37:25;;;;;;;11.00;5.32;;;30.40;90.80;;;;;;4965902;28;20035;-73
2021/12/22 02:40:00;;;;;;;12.13;4.78;;;30.50;90.60;;;;;;4963199;28;20059;-79
2021/12/22 02:42:33;;;;;;;12.05;5.88;;;30.60;90.00;;;;;;4962667;28;20038;-80
2021/12/22 02:45:15;;;;;;;8.25;4.60;;;30.50;89.90;;;;;;4963674;28;20030;-77
2021/12/22 02:47:42;;;;;;;;;;;30.60;89.90;;;;;;4964900;28;20032;-74
2021/12/22 02:50:11;;;;;;;13.05;4.72;;;30.70;89.90;;;;;;4962742;28;19906;-76
2021/12/22 02:53:05;;;;;;;10.80;5.63;;;30.70;88.40;;;;;;4964364;28;20035;-75
2021/12/22 02:55:32;;;;;;;16.55;5.80;;;30.90;88.80;;;;;;4960280;28;20460;-75
2021/12/22 02:58:03;;;;;;;9.07;5.30;;;31.10;86.50;;;;;;4956543;28;20031;-75
2021/12/22 03:00:48;;;;;;;12.82;5.20;;;31.20;86.90;;;;;;4956352;28;20034;-74
2021/12/22 03:03:46;;;;;;;9.80;4.50;;;31.30;85.80;;;;;;4966278;28;20746;-75
2021/12/22 03:06:18;;;;;;;12.60;6.07;;;31.40;85.90;;;;;;4964627;28;20469;-75
2021/12/22 03:08:46;;;;;;;12.20;6.05;;;31.60;85.00;;;;;;4964262;28;20023;-74
2021/12/22 03:11:13;;;;;;;11.98;4.82;;;32.20;84.20;;;;;;4967365;28;20121;-73
2021/12/22 03:13:40;;;;;;;12.52;6.85;;;32.40;83.30;;;;;;4963374;28;20026;-74
2021/12/22 03:16:08;;;;;;;11.23;5.90;;;32.90;80.50;;;;;;4966442;28;20029;-74
2021/12/22 03:18:35;;;;;;;9.82;5.70;;;32.80;80.80;;;;;;4966925;28;20022;-74
2021/12/22 03:21:17;;;;;;;14.52;6.45;;;32.70;81.10;;;;;;4961823;28;20020;-74
2021/12/22 03:23:44;;;;;;;13.13;6.55;;;32.80;79.50;;;;;;4968467;28;20459;-74
2021/12/22 03:26:14;;;;;;;22.65;6.88;;;32.90;79.60;;;;;;4964774;28;20027;-74
2021/12/22 03:28:41;;;;;;;10.55;5.85;;;33.20;79.20;;;;;;4964286;28;20019;-74
2021/12/22 03:31:09;;;;;;;10.88;5.25;;;33.70;78.30;;;;;;4964522;28;20043;-73
2021/12/22 03:33:36;;;;;;;11.48;6.13;;;33.90;76.90;;;;;;4962437;28;20034;-74
2021/12/22 03:36:03;;;;;;;11.35;5.68;;;34.10;76.40;;;;;;4957518;28;20019;-75
2021/12/22 03:38:32;;;;;;;10.88;5.22;;;34.40;74.80;;;;;;4953407;28;20015;-73
2021/12/22 03:41:00;;;;;;;15.68;4.75;;;33.70;75.70;;;;;;4962031;28;20031;-74
2021/12/22 03:43:28;;;;;;;12.55;4.47;;;33.90;75.30;;;;;;4962455;28;20035;-76
2021/12/22 03:45:55;;;;;;;12.55;4.80;;;34.00;74.80;;;;;;4966306;28;20030;-74
2021/12/22 03:48:25;;;;;;;11.07;4.40;;;34.10;76.10;;;;;;4960164;28;20030;-75
2021/12/22 03:50:53;;;;;;;11.23;5.35;;;34.10;74.40;;;;;;4962510;28;20094;-76
2021/12/22 03:53:21;;;;;;;15.30;5.63;;;33.80;75.50;;;;;;4956209;28;20024;-74
2021/12/22 03:55:48;;;;;;;15.70;5.53;;;33.50;76.30;;;;;;4957393;28;20031;-73
2021/12/22 03:58:16;;;;;;;13.35;4.95;;;33.20;77.60;;;;;;4952303;28;20118;-75
2021/12/22 04:00:43;;;;;;;16.45;6.18;;;33.30;76.70;;;;;;4953536;28;20026;-75
2021/12/22 04:03:17;;;;;;;14.57;4.80;;;33.00;76.60;;;;;;4961485;28;20064;-75
2021/12/22 04:05:46;;;;;;;14.45;5.60;;;32.90;77.80;;;;;;4963051;28;20026;-75
2021/12/22 04:08:17;;;;;;;15.55;5.25;;;33.00;78.20;;;;;;4961012;28;20510;-76
2021/12/22 04:10:48;;;;;;;13.93;5.37;;;32.90;78.50;;;;;;4962244;28;20035;-74
2021/12/22 04:13:17;;;;;;;11.57;5.43;;;33.00;77.10;;;;;;4963542;28;20046;-73
2021/12/22 04:15:45;;;;;;;13.57;4.93;;;32.90;77.70;;;;;;4968125;28;20031;-73
2021/12/22 04:18:13;;;;;;;14.00;5.70;;;33.10;77.00;;;;;;4960064;28;20076;-75
2021/12/22 04:20:41;;;;;;;16.08;5.78;;;32.90;77.20;;;;;;4963032;28;20031;-75
2021/12/22 04:23:09;;;;;;;12.32;5.57;;;32.40;77.80;;;;;;4960927;28;20122;-74
2021/12/22 04:25:37;;;;;;;14.80;5.75;;;31.90;78.90;;;;;;4958540;28;20038;-74
2021/12/22 04:28:09;;;;;;;19.70;5.93;;;31.40;80.10;;;;;;4962735;28;20015;-74
2021/12/22 04:30:40;;;;;;;11.57;5.10;;;30.90;80.80;;;;;;4961088;28;20086;-73
2021/12/22 04:33:08;;;;;;;15.18;5.60;;;30.80;81.00;;;;;;4956565;28;20023;-74
2021/12/22 04:35:36;;;;;;;15.60;6.45;;;30.70;81.50;;;;;;4953330;28;20027;-73
2021/12/22 04:38:04;;;;;;;14.88;5.07;;;30.60;81.50;;;;;;4963326;28;20031;-74
2021/12/22 04:40:31;;;;;;;13.05;5.28;;;30.60;81.70;;;;;;4957025;28;20110;-73
2021/12/22 04:42:59;;;;;;;21.63;6.55;;;30.40;83.00;;;;;;4960170;28;20090;-73
2021/12/22 04:45:26;;;;;;;15.05;5.63;;;30.30;83.40;;;;;;4958237;28;20122;-74
2021/12/22 04:47:53;;;;;;;18.67;6.13;;;30.20;83.50;;;;;;4960975;28;20399;-74
2021/12/22 04:50:22;;;;;;;14.45;6.43;;;29.90;84.20;;;;;;4960684;28;20031;-75
2021/12/22 04:53:03;;;;;;;17.02;6.07;;;29.50;84.80;;;;;;4962567;28;20062;-74
2021/12/22 04:55:30;;;;;;;14.68;5.50;;;29.20;85.80;;;;;;4962840;28;20045;-75
2021/12/22 04:57:59;;;;;;;13.73;6.18;;;28.90;85.90;;;;;;4962299;28;20027;-74
2021/12/22 05:00:30;;;;;;;15.57;6.57;;;28.70;87.40;;;;;;4960424;28;20119;-73
2021/12/22 05:02:59;;;;;;;17.95;6.88;;;28.60;87.70;;;;;;4961026;28;20026;-74
2021/12/22 05:05:28;;;;;;;18.17;6.00;;;28.60;87.60;;;;;;4962917;28;20030;-72
2021/12/22 05:07:56;;;;;;;13.38;6.25;;;28.40;88.70;;;;;;4962041;28;20019;-73
2021/12/22 05:10:25;;;;;;;15.80;6.20;;;28.40;88.80;;;;;;4960412;28;20383;-75
2021/12/22 05:12:52;;;;;;;21.20;6.70;;;28.20;88.40;;;;;;4961813;28;20061;-74
2021/12/22 05:15:22;;;;;;;14.93;6.93;;;28.00;89.10;;;;;;4967664;28;20191;-76
2021/12/22 05:18:20;;;;;;;12.25;6.15;;;27.90;89.20;;;;;;4961213;28;20023;-73
2021/12/22 05:20:38;;;;;;;16.02;6.55;;;27.70;90.00;;;;;;4964580;28;20477;-73
2021/12/22 05:23:05;;;;;;;12.98;6.28;;;27.60;90.60;;;;;;4961189;28;20035;-75
2021/12/22 05:25:33;;;;;;;14.73;7.32;;;27.50;90.70;;;;;;4968208;28;20031;-74
2021/12/22 05:28:00;;;;;;;17.10;6.80;;;27.60;90.90;;;;;;4954330;28;20030;-70
2021/12/22 05:30:27;;;;;;;18.38;7.03;;;27.50;90.70;;;;;;4966531;28;20409;-68
2021/12/22 05:32:55;;;;;;;15.52;7.60;;;27.50;90.60;;;;;;4967920;28;20039;-68
2021/12/22 05:35:23;;;;;;;19.38;7.82;;;27.40;91.00;;;;;;4964602;28;20027;-68
2021/12/22 05:37:51;;;;;;;17.55;7.50;;;27.30;91.30;;;;;;4965688;28;20047;-68
2021/12/22 05:40:19;;;;;;;14.90;7.30;;;27.30;91.40;;;;;;4967194;28;20051;-68
2021/12/22 05:42:47;;;;;;;16.83;7.60;;;27.20;91.20;;;;;;4966822;28;20030;-67
2021/12/22 05:45:14;;;;;;;15.20;7.47;;;27.20;91.40;;;;;;4969595;28;20030;-68
2021/12/22 05:47:42;;;;;;;15.98;7.18;;;27.10;91.20;;;;;;4969867;28;20061;-68
2021/12/22 05:50:09;;;;;;;17.00;7.68;;;27.00;91.70;;;;;;4969210;28;20011;-68
2021/12/22 05:52:37;;;;;;;19.20;7.20;;;27.00;91.80;;;;;;4968898;28;20054;-68
2021/12/22 05:55:04;;;;;;;17.48;7.28;;;27.00;92.00;;;;;;4968405;28;20027;-68
2021/12/22 05:57:32;;;;;;;17.52;7.68;;;27.00;92.00;;;;;;4970120;28;21398;-67
2021/12/22 05:59:59;;;;;;;19.80;8.00;;;27.00;92.10;;;;;;4969252;28;20081;-68
2021/12/22 06:02:27;;;;;;;22.70;8.07;;;27.00;92.00;;;;;;4969908;28;20041;-68
2021/12/22 06:04:54;;;;;;;15.23;7.25;;;26.90;92.70;;;;;;4969310;28;20022;-68
2021/12/22 06:07:21;;;;;;;13.18;6.30;;;26.80;92.40;;;;;;4970123;28;20539;-68
2021/12/22 06:09:49;;;;;;;18.05;6.72;;;26.70;92.70;;;;;;4969665;28;20025;-68
2021/12/22 06:12:16;;;;;;;15.07;5.40;;;26.70;93.10;;;;;;4969006;28;20027;-67
2021/12/22 06:14:43;;;;;;;14.85;5.95;;;26.70;93.10;;;;;;4969081;28;20092;-68
2021/12/22 06:17:11;;;;;;;14.75;5.53;;;26.60;93.80;;;;;;4969445;28;20022;-67
2021/12/22 06:19:38;;;;;;;15.40;5.43;;;26.50;94.20;;;;;;4969823;28;20102;-67
2021/12/22 06:22:05;;;;;;;18.35;5.10;;;26.30;94.60;;;;;;4969447;28;20019;-68
2021/12/22 06:24:32;;;;;;;16.33;5.45;;;26.30;94.90;;;;;;4969322;28;20538;-67
2021/12/22 06:27:00;;;;;;;13.77;5.72;;;26.20;94.90;;;;;;4969664;28;20034;-68
2021/12/22 06:29:27;;;;;;;15.27;5.00;;;26.30;94.90;;;;;;4969461;28;20027;-67
2021/12/22 06:31:54;;;;;;;18.52;5.25;;;26.20;94.90;;;;;;4969410;28;20513;-67
2021/12/22 06:34:22;;;;;;;15.45;5.32;;;26.20;95.20;;;;;;4968777;28;20384;-68
2021/12/22 06:36:49;;;;;;;18.05;5.03;;;26.10;95.50;;;;;;4968823;28;20058;-67
2021/12/22 06:39:18;;;;;;;15.45;5.32;;;26.20;95.40;;;;;;4969055;28;20049;-68
2021/12/22 06:41:47;;;;;;;12.85;4.68;;;26.00;95.20;;;;;;4969103;28;20023;-67
2021/12/22 06:44:15;;;;;;;13.82;3.95;;;26.00;95.20;;;;;;4968249;28;20507;-67
2021/12/22 06:46:43;;;;;;;16.73;4.30;;;26.00;95.20;;;;;;4968201;28;20062;-67
2021/12/22 06:49:13;;;;;;;19.67;4.70;;;26.00;95.30;;;;;;4968986;28;20027;-65
2021/12/22 06:51:40;;;;;;;18.20;5.75;;;26.00;95.50;;;;;;4969725;28;20070;-69
2021/12/22 06:54:08;;;;;;;12.45;4.50;;;26.00;95.40;;;;;;4968150;28;20019;-69
2021/12/22 06:56:35;;;;;;;17.45;4.88;;;26.10;95.10;;;;;;4969048;28;20062;-69
2021/12/22 06:59:03;;;;;;;15.15;4.97;;;26.00;95.60;;;;;;4969457;28;20423;-69
2021/12/22 07:01:33;;;;;;;24.58;4.63;;;26.00;95.70;;;;;;4969386;28;20027;-67
2021/12/22 07:04:00;;;;;;;12.00;4.38;;;26.10;95.70;;;;;;4968708;28;20081;-67
2021/12/22 07:06:30;;;;;;;15.85;5.47;;;26.20;95.50;;;;;;4968224;28;20031;-67
2021/12/22 07:08:59;;;;;;;9.88;3.97;;;26.20;95.50;;;;;;4968590;28;20026;-67
2021/12/22 07:11:27;;;;;;;13.02;4.00;;;26.30;95.70;;;;;;4968308;28;20144;-67
2021/12/22 07:13:55;;;;;;;15.30;4.50;;;26.50;95.50;;;;;;4967842;28;20031;-67
2021/12/22 07:16:22;;;;;;;10.80;3.85;;;26.60;95.50;;;;;;4968294;28;20034;-66
2021/12/22 07:18:49;;;;;;;10.43;4.03;;;26.70;95.00;;;;;;4968530;28;20038;-67
2021/12/22 07:21:17;;;;;;;16.50;3.88;;;26.80;94.90;;;;;;4968436;28;20057;-67
2021/12/22 07:23:44;;;;;;;18.60;5.35;;;26.60;94.90;;;;;;4968037;28;20615;-68
2021/12/22 07:26:13;;;;;;;12.63;4.20;;;26.60;95.20;;;;;;4968077;28;20097;-68
2021/12/22 07:28:48;;;;;;;14.35;3.35;;;26.50;95.20;;;;;;4968420;28;20072;-67
2021/12/22 07:31:17;;;;;;;11.23;4.00;;;26.50;95.50;;;;;;4968300;28;20062;-67
2021/12/22 07:33:52;;;;;;;14.73;4.07;;;26.40;95.50;;;;;;4968476;28;20033;-67
2021/12/22 07:36:19;;;;;;;14.68;3.70;;;26.40;95.50;;;;;;4967522;28;20107;-67
2021/12/22 07:39:13;;;;;;;12.13;3.50;;;26.30;95.70;;;;;;4966123;28;20065;-67
2021/12/22 07:41:40;;;;;;;14.85;4.38;;;26.20;95.90;;;;;;4963583;28;20038;-67
2021/12/22 07:44:07;;;;;;;14.07;3.60;;;26.10;95.90;;;;;;4965070;28;20018;-68
2021/12/22 07:46:34;;;;;;;9.00;3.45;;;26.10;95.50;;;;;;4965882;28;20031;-68
2021/12/22 07:49:02;;;;;;;16.55;5.05;;;26.00;95.60;;;;;;4964358;28;20015;-67
2021/12/22 07:51:29;;;;;;;11.15;3.58;;;26.00;95.80;;;;;;4965496;28;20030;-68
2021/12/22 07:53:57;;;;;;;10.85;3.60;;;25.90;96.10;;;;;;4966933;28;20546;-68
2021/12/22 07:56:24;;;;;;;14.95;3.22;;;26.00;96.40;;;;;;4968419;28;20134;-68
2021/12/22 07:58:53;;;;;;;17.65;4.72;;;25.90;96.60;;;;;;4967339;28;20022;-69
2021/12/22 08:01:22;;;;;;;14.20;3.78;;;25.80;96.90;;;;;;4967291;28;20031;-68
2021/12/22 08:03:49;;;;;;;15.70;5.25;;;25.80;96.70;;;;;;4967628;28;20737;-68
2021/12/22 08:06:17;;;;;;;11.25;3.35;;;25.80;96.80;;;;;;4967714;28;20034;-68
2021/12/22 08:08:44;;;;;;;14.88;3.63;;;25.80;96.90;;;;;;4967327;28;20034;-68
2021/12/22 08:11:11;;;;;;;13.70;3.58;;;25.80;97.20;;;;;;4967439;28;20039;-67
2021/12/22 08:13:39;;;;;;;13.07;3.30;;;25.80;97.20;;;;;;4966727;28;20046;-68
2021/12/22 08:16:06;;;;;;;11.15;3.53;;;25.80;97.30;;;;;;4966558;28;20099;-68
2021/12/22 08:18:33;;;;;;;15.27;3.53;;;25.80;97.50;;;;;;4967077;28;20042;-68
2021/12/22 08:21:01;;;;;;;14.57;3.53;;;25.80;97.40;;;;;;4964746;28;20110;-68
2021/12/22 08:23:28;;;;;;;12.50;4.20;;;25.80;97.50;;;;;;4965541;28;20124;-68
2021/12/22 08:25:56;;;;;;;11.30;3.60;;;25.80;97.60;;;;;;4967280;28;20041;-68
2021/12/22 08:28:23;;;;;;;9.27;3.70;;;25.60;97.80;;;;;;4966453;28;20399;-69
2021/12/22 08:30:50;;;;;;;13.98;5.00;;;25.60;98.20;;;;;;4966290;28;20806;-69
2021/12/22 08:33:23;;;;;;;15.70;4.60;;;25.60;98.00;;;;;;4965629;28;20041;-68
2021/12/22 08:38:56;;;;;;;8.95;3.03;;;25.40;98.40;;;;;;4953036;28;20062;-68
2021/12/22 08:41:26;;;;;;;14.73;3.80;;;25.40;98.70;;;;;;4960013;28;20067;-69
2021/12/22 08:43:55;;;;;;;17.13;4.13;;;25.40;98.80;;;;;;4952388;28;20027;-69
2021/12/22 08:46:24;;;;;;;10.77;3.75;;;25.40;99.00;;;;;;4953272;28;20023;-69
2021/12/22 08:48:52;;;;;;;12.95;4.07;;;25.30;98.90;;;;;;4953804;28;20019;-69
2021/12/22 08:51:21;;;;;;;19.38;4.47;;;25.30;99.20;;;;;;4953587;28;20067;-69
2021/12/22 08:53:48;;;;;;;10.70;3.72;;;25.20;99.30;;;;;;4953866;29;20053;-68
2021/12/22 08:56:16;;;;;;;14.82;3.25;;;25.20;99.20;;;;;;4953764;28;20107;-70
2021/12/22 08:58:43;;;;;;;16.65;3.70;;;25.20;99.30;;;;;;4953298;28;20035;-69
2021/12/22 09:01:11;;;;;;;11.70;3.67;;;25.20;99.20;;;;;;4952193;28;20037;-69
2021/12/22 09:03:38;;;;;;;9.82;3.70;;;25.30;99.20;;;;;;4953352;28;20023;-70
2021/12/22 09:06:05;;;;;;;13.15;3.15;;;25.30;99.20;;;;;;4952273;28;20038;-68
2021/12/22 09:08:33;;;;;;;12.35;3.13;;;25.30;99.30;;;;;;4953688;28;20020;-69
2021/12/22 09:11:00;;;;;;;11.57;3.42;;;25.20;99.50;;;;;;4953515;28;20020;-68
2021/12/22 09:13:27;;;;;;;14.93;3.20;;;25.20;99.50;;;;;;4953422;28;20392;-69
2021/12/22 09:15:55;;;;;;;15.70;4.25;;;25.20;99.60;;;;;;4953691;28;20098;-68
2021/12/22 09:18:22;;;;;;;19.25;3.38;;;25.10;99.90;;;;;;4956853;28;20062;-70
2021/12/22 09:20:49;;;;;;;11.30;2.85;;;25.00;99.90;;;;;;4967259;28;20545;-68
2021/12/22 09:23:17;;;;;;;10.25;2.90;;;25.00;99.90;;;;;;4970073;28;20043;-69
2021/12/22 09:25:45;;;;;;;11.40;3.22;;;24.90;99.90;;;;;;4971064;28;20845;-68
2021/12/22 09:28:13;;;;;;;10.18;3.33;;;24.90;99.90;;;;;;4971492;28;20065;-68
2021/12/22 09:30:42;;;;;;;12.05;3.50;;;24.90;99.90;;;;;;4971047;28;20031;-68
2021/12/22 09:33:17;;;;;;;12.32;3.53;;;24.90;99.90;;;;;;4971519;28;20042;-67
2021/12/22 09:35:46;;;;;;;16.15;4.57;;;24.80;99.90;;;;;;4971348;28;20070;-68
2021/12/22 09:38:14;;;;;;;15.63;3.47;;;24.80;99.90;;;;;;4971106;28;20035;-67
2021/12/22 09:40:41;;;;;;;11.57;3.65;;;24.70;99.90;;;;;;4970522;28;20042;-68
2021/12/22 09:43:09;;;;;;;14.98;4.35;;;24.70;99.90;;;;;;4971088;28;20085;-68
2021/12/22 09:45:42;;;;;;;13.10;3.10;;;24.70;99.90;;;;;;4971214;28;20471;-68
2021/12/22 09:50:47;;;;;;;13.40;3.35;;;24.80;99.90;;;;;;4970614;28;20047;-70
2021/12/22 09:53:17;;;;;;;16.65;3.25;;;24.80;99.90;;;;;;4970800;28;20550;-69
2021/12/22 09:55:45;;;;;;;13.43;2.95;;;24.80;99.90;;;;;;4971191;28;20030;-68
2021/12/22 09:58:12;;;;;;;14.23;3.22;;;24.80;99.90;;;;;;4970903;28;20042;-68
2021/12/22 10:00:42;;;;;;;12.55;3.67;;;24.80;99.90;;;;;;4969439;28;20436;-69
2021/12/22 10:03:11;;;;;;;13.15;3.25;;;24.80;99.90;;;;;;4970872;28;20039;-69
2021/12/22 10:05:41;;;;;;;11.93;3.40;;;24.80;99.90;;;;;;4970338;28;20023;-69
2021/12/22 10:08:11;;;;;;;13.32;3.58;;;24.80;99.90;;;;;;4970589;28;20061;-69
2021/12/22 10:10:45;;;;;;;12.90;3.95;;;24.80;99.90;;;;;;4970862;28;20034;-70
2021/12/22 10:13:14;;;;;;;15.73;3.53;;;24.70;99.90;;;;;;4970529;28;20073;-69
2021/12/22 10:15:43;;;;;;;15.45;4.28;;;24.70;99.90;;;;;;4969809;28;20074;-69
2021/12/22 10:18:16;;;;;;;9.65;3.75;;;24.80;99.90;;;;;;4969786;28;20031;-69
2021/12/22 10:20:46;;;;;;;15.73;3.47;;;24.80;99.90;;;;;;4969899;28;20026;-68
2021/12/22 10:23:31;;;;;;;12.88;3.42;;;24.80;99.90;;;;;;4968882;28;20534;-70
2021/12/22 10:26:04;;;;;;;7.65;2.67;;;24.80;99.90;;;;;;4970482;28;20127;-69
2021/12/22 10:29:01;;;;;;;11.90;4.15;;;24.80;99.90;;;;;;4969114;28;20019;-68
2021/12/22 10:31:42;;;;;;;13.63;3.85;;;24.70;99.90;;;;;;4970159;28;20031;-70
2021/12/22 10:34:16;;;;;;;15.80;3.47;;;24.70;99.90;;;;;;4970667;28;20027;-69
2021/12/22 10:36:55;;;;;;;16.42;3.72;;;24.60;99.90;;;;;;4967127;28;20384;-69
2021/12/22 10:39:33;;;;;;;14.07;4.07;;;24.60;99.90;;;;;;4969410;28;20218;-70
2021/12/22 10:42:06;;;;;;;17.23;3.92;;;24.60;99.90;;;;;;4969632;28;20160;-69
2021/12/22 10:44:39;;;;;;;19.90;3.90;;;24.60;99.90;;;;;;4969842;28;20031;-68
2021/12/22 10:49:14;;;;;;;13.02;4.05;;;24.60;99.90;;;;;;4969546;28;20376;-68
2021/12/22 10:50:11;;;;;;;15.68;4.15;;;24.50;99.90;;;;;;4969108;28;20040;-69
2021/12/22 10:52:38;;;;;;;16.20;4.38;;;24.60;99.90;;;;;;4969714;28;20114;-69
2021/12/22 10:55:13;;;;;;;18.98;4.53;;;24.50;99.90;;;;;;4969467;28;20026;-68
2021/12/22 10:57:43;;;;;;;14.88;3.53;;;24.60;99.90;;;;;;4969770;28;20034;-68
2021/12/22 11:00:18;;;;;;;9.77;4.32;;;24.50;99.90;;;;;;4969069;28;20053;-67
2021/12/22 11:03:00;;;;;;;13.27;3.85;;;24.50;99.90;;;;;;4969376;28;20458;-67
2021/12/22 11:05:29;;;;;;;12.85;3.20;;;24.50;99.90;;;;;;4968789;28;20100;-67
2021/12/22 11:08:00;;;;;;;14.18;3.13;;;24.50;99.90;;;;;;4969023;28;20057;-67
2021/12/22 11:10:30;;;;;;;17.23;4.00;;;24.50;99.90;;;;;;4968561;28;20073;-67
2021/12/22 11:13:06;;;;;;;16.05;3.20;;;24.50;99.90;;;;;;4969328;28;20133;-67
2021/12/22 11:15:44;;;;;;;14.98;4.00;;;24.50;99.90;;;;;;4969315;28;20035;-66
2021/12/22 11:18:28;;;;;;;12.32;3.80;;;24.60;99.90;;;;;;4970219;28;20495;-66
2021/12/22 11:21:15;;;;;;;14.45;3.70;;;24.60;99.90;;;;;;4973815;28;20035;-67
2021/12/22 11:23:43;;;;;;;13.98;4.32;;;24.60;99.90;;;;;;4973936;28;20126;-67
2021/12/22 11:26:13;;;;;;;9.60;4.30;;;24.60;99.90;;;;;;4974116;28;20037;-68
2021/12/22 11:28:42;;;;;;;20.23;5.45;;;24.70;99.90;;;;;;4973582;28;20050;-68
2021/12/22 11:31:11;;;;;;;21.92;5.05;;;24.70;99.90;;;;;;4973947;28;20086;-68
2021/12/22 11:33:40;;;;;;;18.33;5.25;;;24.60;99.90;;;;;;4973320;28;20106;-69
2021/12/22 11:36:10;;;;;;;10.98;3.67;;;24.60;99.90;;;;;;4974056;28;20546;-68
2021/12/22 11:38:40;;;;;;;13.63;4.13;;;24.60;99.90;;;;;;4973913;28;20035;-68
2021/12/22 11:41:17;;;;;;;18.08;4.50;;;24.60;99.90;;;;;;4973475;28;20023;-68
2021/12/22 11:43:48;;;;;;;19.52;4.88;;;24.60;99.90;;;;;;4973816;28;20035;-68
2021/12/22 11:46:16;;;;;;;19.48;4.90;;;24.50;99.90;;;;;;4973649;28;20510;-68
2021/12/22 11:48:48;;;;;;;13.40;5.03;;;24.50;99.90;;;;;;4973773;28;20039;-69
2021/12/22 11:51:31;;;;;;;14.95;5.13;;;24.60;99.90;;;;;;4973718;28;20054;-67
2021/12/22 11:54:05;;;;;;;20.75;4.80;;;24.60;99.90;;;;;;4973526;28;20042;-68
2021/12/22 11:56:51;;;;;;;15.52;4.05;;;24.60;99.90;;;;;;4973828;28;20070;-67
2021/12/22 11:59:34;;;;;;;16.23;4.30;;;24.60;99.90;;;;;;4973308;28;20106;-68
2021/12/22 12:02:19;;;;;;;;;;;24.60;99.90;;;;;;4973563;28;20041;-70
2021/12/22 12:04:48;;;;;;;14.95;4.03;;;24.60;99.90;;;;;;4973439;28;19902;-68
2021/12/22 12:07:45;;;;;;;19.10;4.72;;;24.60;99.90;;;;;;4973107;28;20114;-67
2021/12/22 12:10:31;;;;;;;15.75;3.70;;;24.60;99.90;;;;;;4973423;28;20029;-69
2021/12/22 12:13:04;;;;;;;16.92;4.32;;;24.60;99.90;;;;;;4973127;28;20117;-69
2021/12/22 12:22:08;;;;;;;13.00;4.15;;;24.60;99.90;;;;;;4973448;28;20041;-69
2021/12/22 12:25:02;;;;;;;13.88;4.00;;;24.60;99.90;;;;;;4973678;28;20042;-68
2021/12/22 12:27:32;;;;;;;19.83;5.13;;;24.50;99.90;;;;;;4969279;28;20031;-68
2021/12/22 12:30:10;;;;;;;18.23;4.85;;;24.50;99.90;;;;;;4972944;28;20033;-69
2021/12/22 12:32:40;;;;;;;16.05;4.78;;;24.50;99.90;;;;;;4972912;28;20039;-69
2021/12/22 12:35:23;;;;;;;16.65;4.63;;;24.40;99.90;;;;;;4971991;28;20502;-68
2021/12/22 12:38:18;;;;;;;15.05;4.85;;;24.40;99.90;;;;;;4972522;28;20035;-68
2021/12/22 12:40:57;;;;;;;15.10;5.75;;;24.30;99.90;;;;;;4973312;28;20027;-68
2021/12/22 12:46:28;;;;;;;18.08;4.75;;;24.20;99.90;;;;;;4973001;28;20027;-68
2021/12/22 12:51:58;;;;;;;9.43;4.43;;;24.10;99.90;;;;;;4972494;28;20202;-70
2021/12/22 12:54:30;;;;;;;22.48;4.97;;;24.10;99.90;;;;;;4972703;28;20480;-68
2021/12/22 12:57:15;;;;;;;11.63;4.35;;;24.10;99.90;;;;;;4973011;28;20030;-68
2021/12/22 12:59:49;;;;;;;14.02;4.10;;;24.10;99.90;;;;;;4973104;28;20027;-70
2021/12/22 13:02:21;;;;;;;17.10;4.93;;;24.10;99.90;;;;;;4972868;28;20026;-68
2021/12/22 13:04:54;;;;;;;14.32;4.97;;;24.10;99.90;;;;;;4971987;28;20019;-68
2021/12/22 13:07:22;;;;;;;18.08;4.50;;;24.20;99.90;;;;;;4972380;28;20038;-68
2021/12/22 13:10:12;;;;;;;18.00;4.35;;;24.20;99.90;;;;;;4972483;28;21137;-68
2021/12/22 13:18:26;;;;;;;15.07;5.55;;;24.10;99.90;;;;;;4972717;28;20034;-70
2021/12/22 13:20:56;;;;;;;14.68;5.57;;;24.10;99.90;;;;;;4972736;28;20472;-69
2021/12/22 13:23:26;;;;;;;16.02;4.85;;;24.10;99.90;;;;;;4972430;28;20539;-68
2021/12/22 13:25:54;;;;;;;13.93;4.88;;;24.10;99.90;;;;;;4972374;28;20026;-68
2021/12/22 13:28:26;;;;;;;18.05;7.32;;;23.90;99.90;;;;;;4972304;28;20023;-69
2021/12/22 13:31:02;;;;;;;14.15;5.13;;;24.00;99.90;;;;;;4972368;28;20100;-68